Waihola, New Zealand
Current Conditions -  °F | °C
As of 10:00 PM on Thursday 29 Jan 2015 (Local Time) from NZCH Reporting Station
Overcast Overcast  
Wind Chill: 63°   Ceiling: 1100
Heat Index: 63°   Visibility: 6mi
Dew Point: 61°   Wind: 10mph
Humidity: 94%   Direction: 70°ENE
Pressure: 30"   Gusts: NA
Location:  46.02°S, 170.1°E
Report Text: NZCH 291000Z AUTO 07009KT 9999 OVC011/// 17/16 Q1016 TEMPO 2500+DZ BKN006
Loading
Personal Weather Stations






























Interactive Weather Map New forecast layout! Learn more

10-Day Weather Forecast

Advertisements
Track Severe Weather on mobile